Time;durP1;ratioP1;P1;durP2;ratioP2;P2;SDS_P1;SDS_P2;PMS_P1;PMS_P2;Temp;Humidity;BMP_temperature;BMP_pressure;BME280_temperature;BME280_humidity;BME280_pressure;Samples;Min_cycle;Max_cycle;Signal;HPM_P1;HPM_P2
2022/11/27 00:01:15;;;;;;;;;;;;;;;11.57;58.51;100753.19;4472172;31;33003;-70
2022/11/27 00:03:42;;;;;;;;;;;;;;;11.78;57.78;100748.28;4466481;32;32875;-71
2022/11/27 00:06:14;;;;;;;;;;;;;;;11.60;58.34;100738.72;4469625;32;33670;-71
2022/11/27 00:08:42;;;;;;;;;;;;;;;11.25;59.31;100748.97;4452274;32;32312;-70
2022/11/27 00:11:10;;;;;;;;;;;;;;;11.54;58.54;100749.81;4469335;32;34473;-71
2022/11/27 00:13:38;;;;;;;;;;;;;;;11.53;58.55;100753.47;4468076;32;34941;-69
2022/11/27 00:16:05;;;;;;;;;;;;;;;11.57;58.44;100761.22;4471538;32;33847;-68
2022/11/27 00:18:33;;;;;;;;;;;;;;;11.60;58.28;100750.31;4472154;32;34288;-70
2022/11/27 00:21:10;;;;;;;;;;;;;;;11.62;58.15;100750.19;4467472;32;34098;-69
2022/11/27 00:23:38;;;;;;;;;;;;;;;11.66;58.28;100749.91;4463321;32;34423;-70
2022/11/27 00:26:05;;;;;;;;;;;;;;;11.81;57.98;100741.84;4476575;32;32996;-70
2022/11/27 00:28:33;;;;;;;;;;;;;;;11.95;57.23;100747.22;4473786;32;34133;-69
2022/11/27 00:31:05;;;;;;;;;;;;;;;11.92;57.01;100742.06;4474261;32;34145;-70
2022/11/27 00:33:32;;;;;;;;;;;;;;;12.01;56.62;100744.16;4455627;32;34174;-69
2022/11/27 00:36:03;;;;;;;;;;;;;;;11.99;56.15;100753.25;4472576;32;33333;-69
2022/11/27 00:38:31;;;;;;;;;;;;;;;11.93;56.34;100743.78;4473834;32;33828;-70
2022/11/27 00:41:08;;;;;;;;;;;;;;;12.13;55.76;100747.84;4465797;32;34005;-67
2022/11/27 00:43:35;;;;;;;;;;;;;;;12.18;55.56;100751.09;4473784;32;35404;-71
2022/11/27 00:46:11;;;;;;;;;;;;;;;12.25;55.43;100752.41;4475138;32;33201;-68
2022/11/27 00:48:39;;;;;;;;;;;;;;;12.27;55.18;100755.00;4478923;32;34234;-68
2022/11/27 00:51:07;;;;;;;;;;;;;;;12.08;55.55;100753.53;4475626;32;33898;-70
2022/11/27 00:53:35;;;;;;;;;;;;;;;12.20;55.16;100762.59;4463513;32;34993;-67
2022/11/27 00:56:02;;;;;;;;;;;;;;;12.21;54.86;100756.25;4473453;32;31918;-69
2022/11/27 00:58:29;;;;;;;;;;;;;;;12.21;54.72;100755.41;4465946;32;33813;-70
2022/11/27 01:00:57;;;;;;;;;;;;;;;12.09;55.09;100757.06;4482020;32;33907;-67
2022/11/27 01:03:25;;;;;;;;;;;;;;;12.05;55.08;100766.28;4477629;32;34125;-68
2022/11/27 01:05:52;;;;;;;;;;;;;;;12.15;54.74;100762.03;4474548;32;32908;-67
2022/11/27 01:08:20;;;;;;;;;;;;;;;12.10;54.59;100759.66;4470691;32;32942;-69
2022/11/27 01:10:51;;;;;;;;;;;;;;;12.11;54.59;100758.69;4476778;32;34762;-67
2022/11/27 01:13:25;;;;;;;;;;;;;;;12.11;54.59;100757.84;4482963;32;34161;-68
2022/11/27 01:16:01;;;;;;;;;;;;;;;11.76;55.60;100752.88;4475686;32;33747;-70
2022/11/27 01:18:29;;;;;;;;;;;;;;;11.68;55.97;100755.16;4469215;32;34395;-68
2022/11/27 01:20:56;;;;;;;;;;;;;;;11.78;55.65;100744.72;4474146;32;34343;-67
2022/11/27 01:23:24;;;;;;;;;;;;;;;11.86;55.24;100755.87;4476003;32;34511;-69
2022/11/27 01:25:54;;;;;;;;;;;;;;;11.96;54.73;100761.50;4454048;32;832934;-68
2022/11/27 01:28:22;;;;;;;;;;;;;;;11.84;55.12;100758.63;4470751;32;34171;-67
2022/11/27 01:30:50;;;;;;;;;;;;;;;11.92;54.88;100763.53;4481418;32;34072;-67
2022/11/27 01:33:17;;;;;;;;;;;;;;;11.88;54.88;100762.00;4468759;32;33108;-69
2022/11/27 01:35:52;;;;;;;;;;;;;;;11.86;54.93;100762.09;4457045;32;33155;-67
2022/11/27 01:38:20;;;;;;;;;;;;;;;11.88;54.61;100759.31;4471850;32;33903;-66
2022/11/27 01:40:47;;;;;;;;;;;;;;;11.81;54.75;100774.03;4476222;32;35469;-68
2022/11/27 01:43:15;;;;;;;;;;;;;;;11.65;55.15;100766.09;4478191;32;34800;-69
2022/11/27 01:45:43;;;;;;;;;;;;;;;11.70;54.96;100761.31;4473096;32;34534;-67
2022/11/27 01:48:10;;;;;;;;;;;;;;;11.62;55.28;100761.81;4458944;32;33836;-67
2022/11/27 01:50:38;;;;;;;;;;;;;;;11.69;55.07;100758.75;4454071;32;35042;-68
2022/11/27 01:53:06;;;;;;;;;;;;;;;11.71;54.83;100749.63;4467701;32;34456;-68
2022/11/27 01:55:42;;;;;;;;;;;;;;;11.66;54.78;100759.78;4454638;32;33411;-67
2022/11/27 01:58:10;;;;;;;;;;;;;;;11.58;55.03;100754.88;4468458;32;33958;-67
2022/11/27 02:00:37;;;;;;;;;;;;;;;11.58;55.23;100767.44;4462276;32;35016;-68
2022/11/27 02:03:05;;;;;;;;;;;;;;;11.60;55.04;100762.84;4467172;32;35001;-67
2022/11/27 02:05:33;;;;;;;;;;;;;;;11.59;55.16;100763.81;4467637;32;33754;-68
2022/11/27 02:08:02;;;;;;;;;;;;;;;11.56;55.30;100764.00;4476070;32;33124;-67
2022/11/27 02:10:41;;;;;;;;;;;;;;;11.57;55.43;100769.25;4464942;32;35273;-67
2022/11/27 02:13:12;;;;;;;;;;;;;;;11.45;55.58;100767.34;4467613;32;34686;-69
2022/11/27 02:16:11;;;;;;;;;;;;;;;11.48;55.36;100767.16;4456621;32;33511;-70
2022/11/27 02:18:55;;;;;;;;;;;;;;;11.46;55.46;100765.50;4432836;32;35238;-71
2022/11/27 02:21:28;;;;;;;;;;;;;;;11.50;55.37;100761.72;4466767;32;34335;-68
2022/11/27 02:24:28;;;;;;;;;;;;;;;11.48;55.45;100759.09;4457356;32;32943;-69
2022/11/27 02:27:25;;;;;;;;;;;;;;;11.56;55.44;100758.66;4442323;32;33402;-67
2022/11/27 02:29:53;;;;;;;;;;;;;;;11.57;55.43;100753.19;4465795;32;33874;-67
2022/11/27 02:32:23;;;;;;;;;;;;;;;11.47;55.76;100761.91;4451390;32;34737;-68
2022/11/27 02:34:56;;;;;;;;;;;;;;;11.50;55.65;100754.53;4457195;32;34093;-68
2022/11/27 02:37:30;;;;;;;;;;;;;;;11.60;55.31;100761.03;4455415;32;34165;-68
2022/11/27 02:40:01;;;;;;;;;;;;;;;11.62;55.15;100768.97;4467648;32;33755;-67
2022/11/27 02:42:30;;;;;;;;;;;;;;;11.58;55.26;100770.97;4455264;32;34463;-68
2022/11/27 02:44:59;;;;;;;;;;;;;;;11.48;55.66;100771.66;4468643;32;34854;-69
2022/11/27 02:47:27;;;;;;;;;;;;;;;11.62;55.12;100774.31;4458921;32;34753;-68
2022/11/27 02:49:55;;;;;;;;;;;;;;;11.61;55.00;100776.16;4468288;32;32878;-67
2022/11/27 02:52:26;;;;;;;;;;;;;;;11.62;54.91;100771.63;4462084;32;33867;-67
2022/11/27 02:54:54;;;;;;;;;;;;;;;11.46;55.28;100768.19;4461709;32;34189;-68
2022/11/27 02:57:22;;;;;;;;;;;;;;;11.37;55.38;100770.50;4457088;32;33808;-68
2022/11/27 02:59:49;;;;;;;;;;;;;;;11.57;54.57;100771.94;4470420;32;34679;-69
2022/11/27 03:02:19;;;;;;;;;;;;;;;11.35;55.03;100769.72;4458315;32;35331;-67
2022/11/27 03:04:48;;;;;;;;;;;;;;;11.52;54.31;100766.00;4478030;32;34431;-68
2022/11/27 03:07:17;;;;;;;;;;;;;;;11.54;54.01;100765.91;4473848;32;33595;-66
2022/11/27 03:09:45;;;;;;;;;;;;;;;11.52;54.00;100766.00;4472160;32;34026;-66
2022/11/27 03:12:13;;;;;;;;;;;;;;;11.42;54.30;100772.87;4451476;32;33975;-67
2022/11/27 03:14:40;;;;;;;;;;;;;;;11.11;55.15;100771.25;4469271;32;34378;-67
2022/11/27 03:17:26;;;;;;;;;;;;;;;11.33;54.40;100768.97;4461403;32;32649;-66
2022/11/27 03:19:59;;;;;;;;;;;;;;;11.28;54.42;100773.75;4472490;32;34833;-66
2022/11/27 03:22:26;;;;;;;;;;;;;;;11.15;54.58;100770.09;4469785;32;34306;-65
2022/11/27 03:24:54;;;;;;;;;;;;;;;11.29;54.08;100774.59;4466444;32;35464;-66
2022/11/27 03:27:31;;;;;;;;;;;;;;;11.27;53.90;100774.72;4466880;32;33541;-66
2022/11/27 03:30:00;;;;;;;;;;;;;;;11.26;53.65;100772.97;4464559;32;34064;-65
2022/11/27 03:32:27;;;;;;;;;;;;;;;11.16;54.12;100775.34;4474509;32;35050;-66
2022/11/27 03:34:54;;;;;;;;;;;;;;;11.14;54.19;100776.44;4466014;32;34068;-70
2022/11/27 03:37:22;;;;;;;;;;;;;;;11.20;53.90;100776.03;4454188;32;34594;-70
2022/11/27 03:39:49;;;;;;;;;;;;;;;11.19;53.66;100785.87;4467150;32;35616;-72
2022/11/27 03:42:27;;;;;;;;;;;;;;;11.11;53.85;100782.81;4458980;32;32879;-71
2022/11/27 03:45:13;;;;;;;;;;;;;;;10.86;55.04;100783.44;4459673;32;34014;-69
2022/11/27 03:47:52;;;;;;;;;;;;;;;10.91;55.11;100789.37;4473663;32;33259;-67
2022/11/27 03:50:39;;;;;;;;;;;;;;;10.90;55.26;100786.78;4469114;32;32841;-66
2022/11/27 03:53:18;;;;;;;;;;;;;;;10.92;55.52;100791.09;4474954;32;34393;-67
2022/11/27 03:56:05;;;;;;;;;;;;;;;11.04;55.08;100788.63;4474080;32;33977;-68
2022/11/27 03:58:39;;;;;;;;;;;;;;;11.04;55.12;100783.25;4469785;32;33433;-66
2022/11/27 04:01:08;;;;;;;;;;;;;;;10.93;55.44;100795.50;4469188;32;34436;-69
2022/11/27 04:03:35;;;;;;;;;;;;;;;11.09;54.74;100787.41;4454816;32;35314;-68
2022/11/27 04:06:03;;;;;;;;;;;;;;;11.06;54.64;100784.06;4465693;32;32937;-72
2022/11/27 04:08:30;;;;;;;;;;;;;;;11.08;54.73;100779.47;4467674;32;34883;-66
2022/11/27 04:10:57;;;;;;;;;;;;;;;11.05;54.71;100779.66;4472210;32;36476;-68
2022/11/27 04:13:25;;;;;;;;;;;;;;;11.04;54.68;100788.63;4465499;32;34024;-69
2022/11/27 04:15:52;;;;;;;;;;;;;;;10.99;54.68;100775.53;4472069;32;34541;-69
2022/11/27 04:18:19;;;;;;;;;;;;;;;11.00;54.51;100784.41;4474049;32;31724;-68
2022/11/27 04:20:47;;;;;;;;;;;;;;;10.82;54.38;100783.69;4469326;32;34310;-69
2022/11/27 04:23:14;;;;;;;;;;;;;;;10.98;54.14;100789.00;4472689;32;34338;-67
2022/11/27 04:25:41;;;;;;;;;;;;;;;10.79;54.64;100783.91;4477631;32;33191;-66
2022/11/27 04:28:09;;;;;;;;;;;;;;;10.86;54.22;100787.94;4469285;32;33419;-66
2022/11/27 04:30:36;;;;;;;;;;;;;;;10.70;54.73;100787.97;4469138;32;34287;-66
2022/11/27 04:33:03;;;;;;;;;;;;;;;10.70;54.47;100790.66;4466249;32;34435;-66
2022/11/27 04:35:31;;;;;;;;;;;;;;;10.67;54.70;100793.50;4474040;32;33528;-67
2022/11/27 04:37:58;;;;;;;;;;;;;;;10.56;54.99;100786.09;4472393;32;32322;-66
2022/11/27 04:40:25;;;;;;;;;;;;;;;10.67;54.84;100790.81;4471316;32;33873;-66
2022/11/27 04:42:53;;;;;;;;;;;;;;;10.53;55.36;100783.59;4476363;32;34720;-66
2022/11/27 04:45:20;;;;;;;;;;;;;;;10.61;54.79;100777.78;4475359;32;34742;-67
2022/11/27 04:47:47;;;;;;;;;;;;;;;10.68;54.83;100779.16;4473149;32;33283;-66
2022/11/27 04:50:15;;;;;;;;;;;;;;;10.67;54.98;100782.78;4469845;32;33682;-69
2022/11/27 04:52:42;;;;;;;;;;;;;;;10.80;54.24;100778.44;4465029;32;33463;-67
2022/11/27 04:55:09;;;;;;;;;;;;;;;10.49;55.27;100777.53;4464199;32;34353;-67
2022/11/27 04:57:37;;;;;;;;;;;;;;;10.55;55.26;100775.47;4469967;32;33128;-66
2022/11/27 05:00:04;;;;;;;;;;;;;;;10.12;56.74;100780.59;4467981;32;34569;-68
2022/11/27 05:02:32;;;;;;;;;;;;;;;10.53;55.79;100780.03;4461722;32;34299;-68
2022/11/27 05:04:59;;;;;;;;;;;;;;;10.64;55.48;100777.62;4470295;32;35161;-67
2022/11/27 05:07:26;;;;;;;;;;;;;;;10.65;55.08;100782.00;4466406;32;33411;-67
2022/11/27 05:09:54;;;;;;;;;;;;;;;10.76;54.88;100784.94;4467378;32;34889;-66
2022/11/27 05:12:21;;;;;;;;;;;;;;;10.85;54.79;100786.19;4468368;32;34102;-69
2022/11/27 05:14:48;;;;;;;;;;;;;;;10.59;55.67;100777.88;4469174;32;34372;-67
2022/11/27 05:17:16;;;;;;;;;;;;;;;10.77;55.27;100773.25;4470804;32;34066;-67
2022/11/27 05:19:43;;;;;;;;;;;;;;;10.85;55.24;100773.69;4463887;32;34204;-68
2022/11/27 05:22:10;;;;;;;;;;;;;;;10.92;54.90;100775.03;4468911;32;34386;-67
2022/11/27 05:24:38;;;;;;;;;;;;;;;10.66;56.17;100778.41;4471169;32;34449;-69
2022/11/27 05:27:05;;;;;;;;;;;;;;;10.71;55.86;100782.50;4477064;32;34762;-68
2022/11/27 05:29:33;;;;;;;;;;;;;;;10.81;55.67;100779.28;4476813;32;34193;-69
2022/11/27 05:32:00;;;;;;;;;;;;;;;10.76;55.87;100779.56;4467025;32;34080;-67
2022/11/27 05:34:27;;;;;;;;;;;;;;;10.78;55.87;100774.97;4469816;32;34420;-67
2022/11/27 05:36:55;;;;;;;;;;;;;;;10.82;55.78;100779.22;4470972;32;34571;-67
2022/11/27 05:39:22;;;;;;;;;;;;;;;10.79;55.81;100781.22;4466038;32;34233;-67
2022/11/27 05:41:49;;;;;;;;;;;;;;;10.82;55.73;100779.22;4476802;32;34849;-67
2022/11/27 05:44:17;;;;;;;;;;;;;;;10.84;55.33;100774.62;4475296;32;35253;-66
2022/11/27 05:46:44;;;;;;;;;;;;;;;10.85;55.33;100772.78;4469475;32;32217;-67
2022/11/27 05:49:12;;;;;;;;;;;;;;;10.65;56.35;100766.81;4471978;32;34361;-70
2022/11/27 05:51:39;;;;;;;;;;;;;;;10.83;55.93;100772.03;4470247;32;34149;-67
2022/11/27 05:54:10;;;;;;;;;;;;;;;10.89;55.85;100777.88;4470101;32;34386;-67
2022/11/27 05:56:37;;;;;;;;;;;;;;;10.93;55.42;100782.09;4467727;32;33814;-67
2022/11/27 05:59:04;;;;;;;;;;;;;;;10.92;55.57;100779.53;4477337;32;34562;-67
2022/11/27 06:01:32;;;;;;;;;;;;;;;10.91;55.49;100781.34;4474102;32;34421;-67
2022/11/27 06:03:59;;;;;;;;;;;;;;;10.89;55.47;100785.06;4469661;32;34589;-67
2022/11/27 06:06:27;;;;;;;;;;;;;;;10.55;56.77;100784.34;4462224;32;33102;-66
2022/11/27 06:08:54;;;;;;;;;;;;;;;10.56;56.93;100785.22;4468166;32;32479;-69
2022/11/27 06:11:22;;;;;;;;;;;;;;;10.86;56.19;100774.53;4471784;32;32808;-67
2022/11/27 06:13:49;;;;;;;;;;;;;;;10.79;56.41;100775.87;4470215;32;34188;-68
2022/11/27 06:16:20;;;;;;;;;;;;;;;10.56;56.74;100783.44;4470964;32;33339;-65
2022/11/27 06:18:49;;;;;;;;;;;;;;;10.63;56.91;100784.78;4467699;32;34096;-65
2022/11/27 06:21:17;;;;;;;;;;;;;;;10.84;56.58;100792.50;4466423;32;32920;-64
2022/11/27 06:23:44;;;;;;;;;;;;;;;10.84;56.66;100792.50;4468143;32;33316;-65
2022/11/27 06:26:16;;;;;;;;;;;;;;;10.95;55.60;100798.09;4470352;32;31977;-70
2022/11/27 06:28:43;;;;;;;;;;;;;;;10.97;55.43;100801.53;4471478;32;34277;-65
2022/11/27 06:31:12;;;;;;;;;;;;;;;10.99;54.82;100794.28;4470973;32;32937;-65
2022/11/27 06:33:44;;;;;;;;;;;;;;;10.89;54.99;100796.63;4469153;32;33881;-66
2022/11/27 06:36:12;;;;;;;;;;;;;;;10.88;54.90;100791.34;4469598;32;33333;-67
2022/11/27 06:38:39;;;;;;;;;;;;;;;10.80;55.60;100796.31;4472476;32;34114;-65
2022/11/27 06:41:07;;;;;;;;;;;;;;;10.85;55.60;100804.94;4469990;32;34144;-66
2022/11/27 06:43:35;;;;;;;;;;;;;;;10.92;55.31;100804.50;4470257;32;33247;-66
2022/11/27 06:46:03;;;;;;;;;;;;;;;10.86;55.47;100810.22;4469545;32;33659;-66
2022/11/27 06:48:30;;;;;;;;;;;;;;;10.88;56.02;100804.75;4468473;32;35179;-66
2022/11/27 06:50:59;;;;;;;;;;;;;;;10.94;55.74;100813.28;4466004;32;34006;-66
2022/11/27 06:53:27;;;;;;;;;;;;;;;11.01;55.37;100808.44;4471481;32;33976;-66
2022/11/27 06:55:54;;;;;;;;;;;;;;;10.99;55.47;100814.84;4471168;32;34386;-68
2022/11/27 06:58:22;;;;;;;;;;;;;;;10.98;55.80;100811.31;4474274;32;34131;-66
2022/11/27 07:00:57;;;;;;;;;;;;;;;10.90;56.06;100803.72;4469924;32;34197;-67
2022/11/27 07:03:25;;;;;;;;;;;;;;;10.87;56.56;100797.69;4464468;32;35523;-66
2022/11/27 07:05:52;;;;;;;;;;;;;;;11.18;55.46;100794.03;4465578;32;32036;-66
2022/11/27 07:08:21;;;;;;;;;;;;;;;11.11;56.28;100800.72;4470453;32;34062;-65
2022/11/27 07:10:48;;;;;;;;;;;;;;;11.35;55.42;100801.03;4469322;32;35461;-66
2022/11/27 07:13:15;;;;;;;;;;;;;;;11.29;55.37;100801.41;4470675;32;34615;-66
2022/11/27 07:15:43;;;;;;;;;;;;;;;11.51;54.88;100803.63;4478576;32;34327;-66
2022/11/27 07:18:10;;;;;;;;;;;;;;;11.62;54.46;100806.50;4467334;32;34231;-66
2022/11/27 07:20:37;;;;;;;;;;;;;;;11.69;54.16;100810.53;4466730;32;33774;-68
2022/11/27 07:23:05;;;;;;;;;;;;;;;11.61;54.99;100802.97;4465402;32;35458;-66
2022/11/27 07:25:32;;;;;;;;;;;;;;;11.69;55.21;100805.19;4469102;32;33648;-66
2022/11/27 07:28:00;;;;;;;;;;;;;;;11.80;54.90;100807.19;4473376;32;33986;-66
2022/11/27 07:30:27;;;;;;;;;;;;;;;11.94;54.60;100807.22;4473061;32;34876;-68
2022/11/27 07:32:55;;;;;;;;;;;;;;;11.79;54.71;100811.69;4476068;32;35419;-66
2022/11/27 07:35:22;;;;;;;;;;;;;;;11.86;54.63;100810.37;4479815;32;33666;-68
2022/11/27 07:37:49;;;;;;;;;;;;;;;12.02;54.28;100809.41;4475737;32;35566;-66
2022/11/27 07:40:17;;;;;;;;;;;;;;;11.98;54.29;100807.88;4473638;32;34324;-68
2022/11/27 07:42:44;;;;;;;;;;;;;;;12.09;54.13;100813.41;4469334;32;32889;-65
2022/11/27 07:45:11;;;;;;;;;;;;;;;11.98;54.83;100810.56;4472133;32;34028;-65
2022/11/27 07:47:39;;;;;;;;;;;;;;;11.92;54.96;100816.31;4459949;32;32609;-66
2022/11/27 07:50:07;;;;;;;;;;;;;;;12.32;53.66;100810.09;4466103;32;33920;-66
2022/11/27 07:52:35;;;;;;;;;;;;;;;12.50;53.21;100812.56;4466206;32;33154;-66
2022/11/27 07:55:08;;;;;;;;;;;;;;;12.50;53.32;100809.87;4456177;32;33250;-66
2022/11/27 07:57:35;;;;;;;;;;;;;;;11.89;54.73;100801.28;4467868;32;34223;-67
2022/11/27 08:00:03;;;;;;;;;;;;;;;12.46;53.33;100802.97;4466349;32;34185;-66
2022/11/27 08:02:30;;;;;;;;;;;;;;;12.54;52.93;100808.69;4467466;32;34422;-68
2022/11/27 08:04:58;;;;;;;;;;;;;;;12.54;52.71;100806.87;4471279;32;34343;-69
2022/11/27 08:07:26;;;;;;;;;;;;;;;12.68;52.47;100805.09;4465067;32;34301;-66
2022/11/27 08:09:53;;;;;;;;;;;;;;;12.70;51.88;100812.09;4458841;32;34392;-66
2022/11/27 08:12:22;;;;;;;;;;;;;;;12.59;53.03;100810.13;4467773;32;34913;-66
2022/11/27 08:14:49;;;;;;;;;;;;;;;12.53;53.75;100815.91;4464560;32;32288;-66
2022/11/27 08:17:16;;;;;;;;;;;;;;;12.87;52.34;100816.31;4468148;32;35466;-65
2022/11/27 08:19:44;;;;;;;;;;;;;;;12.94;51.91;100814.97;4467475;32;32722;-66
2022/11/27 08:22:11;;;;;;;;;;;;;;;12.85;52.30;100814.72;4471217;32;33116;-66
2022/11/27 08:24:41;;;;;;;;;;;;;;;12.85;52.43;100820.09;4466794;32;34244;-66
2022/11/27 08:27:09;;;;;;;;;;;;;;;12.96;52.20;100820.22;4473312;32;35403;-68
2022/11/27 08:29:36;;;;;;;;;;;;;;;12.99;52.16;100825.38;4466049;32;34564;-68
2022/11/27 08:32:04;;;;;;;;;;;;;;;13.06;51.97;100834.75;4464822;32;34046;-66
2022/11/27 08:34:31;;;;;;;;;;;;;;;13.14;51.78;100829.72;4466153;32;32293;-66
2022/11/27 08:36:59;;;;;;;;;;;;;;;13.15;51.47;100833.28;4466561;32;32756;-67
2022/11/27 08:39:26;;;;;;;;;;;;;;;12.94;51.85;100828.41;4465688;32;33128;-65
2022/11/27 08:41:53;;;;;;;;;;;;;;;13.14;51.35;100827.03;4465498;32;34662;-66
2022/11/27 08:44:21;;;;;;;;;;;;;;;12.20;53.28;100821.66;4464917;32;33290;-66
2022/11/27 08:46:48;;;;;;;;;;;;;;;11.83;54.37;100825.78;4464564;32;34046;-66
2022/11/27 08:49:16;;;;;;;;;;;;;;;11.74;55.09;100827.19;4469505;32;34302;-66
2022/11/27 08:51:43;;;;;;;;;;;;;;;11.93;54.62;100826.94;4465177;32;33939;-65
2022/11/27 08:54:10;;;;;;;;;;;;;;;11.10;56.97;100834.66;4465854;32;33627;-66
2022/11/27 08:56:38;;;;;;;;;;;;;;;11.79;55.42;100835.84;4471549;32;33953;-67
2022/11/27 08:59:05;;;;;;;;;;;;;;;11.64;55.89;100840.31;4466937;32;34281;-66
2022/11/27 09:01:32;;;;;;;;;;;;;;;11.17;57.55;100844.09;4452755;32;32891;-67
2022/11/27 09:04:00;;;;;;;;;;;;;;;11.33;56.75;100844.03;4471425;32;32199;-66
2022/11/27 09:06:28;;;;;;;;;;;;;;;11.66;55.86;100849.12;4466571;32;33775;-66
2022/11/27 09:08:56;;;;;;;;;;;;;;;11.75;55.91;100853.09;4469466;32;34580;-66
2022/11/27 09:11:23;;;;;;;;;;;;;;;11.98;54.82;100859.72;4475000;32;34782;-66
2022/11/27 09:13:50;;;;;;;;;;;;;;;12.29;53.81;100845.19;4470741;32;33433;-66
2022/11/27 09:16:18;;;;;;;;;;;;;;;12.22;54.25;100849.22;4473770;32;33318;-67
2022/11/27 09:18:47;;;;;;;;;;;;;;;12.41;53.08;100854.28;4466544;32;33157;-67
2022/11/27 09:21:15;;;;;;;;;;;;;;;12.37;52.54;100842.03;4468690;32;34979;-66
2022/11/27 09:23:42;;;;;;;;;;;;;;;12.49;52.22;100856.50;4457039;32;36446;-65
2022/11/27 09:26:11;;;;;;;;;;;;;;;12.55;51.70;100858.75;4467229;32;34071;-65
2022/11/27 09:28:39;;;;;;;;;;;;;;;12.47;52.20;100855.72;4475404;32;33986;-65
2022/11/27 09:31:07;;;;;;;;;;;;;;;12.43;53.10;100848.81;4475111;32;34063;-66
2022/11/27 09:33:35;;;;;;;;;;;;;;;12.58;52.38;100846.00;4475454;32;33660;-65
2022/11/27 09:36:06;;;;;;;;;;;;;;;12.71;51.74;100846.06;4468650;32;34905;-67
2022/11/27 09:38:34;;;;;;;;;;;;;;;12.78;51.92;100841.13;4472535;32;34615;-68
2022/11/27 09:41:05;;;;;;;;;;;;;;;13.07;50.89;100847.25;4466779;32;33430;-66
2022/11/27 09:43:33;;;;;;;;;;;;;;;13.13;50.71;100840.56;4471478;32;33465;-67
2022/11/27 09:46:07;;;;;;;;;;;;;;;13.17;50.80;100837.59;4452630;32;35397;-66
2022/11/27 09:48:36;;;;;;;;;;;;;;;13.34;50.42;100844.53;4456378;32;35431;-67
2022/11/27 09:51:12;;;;;;;;;;;;;;;13.52;50.15;100847.78;4467815;31;34275;-67
2022/11/27 09:53:46;;;;;;;;;;;;;;;13.68;49.80;100848.41;4477549;31;32348;-67
2022/11/27 09:56:15;;;;;;;;;;;;;;;13.86;49.10;100837.31;4463652;32;34314;-67
2022/11/27 09:58:44;;;;;;;;;;;;;;;13.88;49.38;100835.38;4466969;32;34186;-67
2022/11/27 10:01:15;;;;;;;;;;;;;;;13.96;49.21;100830.31;4475028;32;33895;-68
2022/11/27 10:03:43;;;;;;;;;;;;;;;14.03;49.00;100828.03;4455939;32;31951;-69
2022/11/27 10:06:26;;;;;;;;;;;;;;;14.14;48.77;100823.59;4474949;32;34480;-67
2022/11/27 10:09:13;;;;;;;;;;;;;;;13.96;49.13;100819.53;4461001;32;34514;-69
2022/11/27 10:11:47;;;;;;;;;;;;;;;13.63;49.74;100817.41;4474749;32;34380;-67
2022/11/27 10:14:33;;;;;;;;;;;;;;;13.68;49.63;100810.75;4466190;32;33303;-67
2022/11/27 10:17:07;;;;;;;;;;;;;;;13.86;49.33;100805.03;4471699;32;34097;-66
2022/11/27 10:19:37;;;;;;;;;;;;;;;14.01;48.41;100805.75;4480896;32;34230;-67
2022/11/27 10:22:20;;;;;;;;;;;;;;;14.17;48.34;100801.84;4469716;32;33381;-67
2022/11/27 10:25:17;;;;;;;;;;;;;;;14.06;48.48;100806.28;4476951;32;33686;-66
2022/11/27 10:27:48;;;;;;;;;;;;;;;14.31;47.90;100800.81;4454536;32;34086;-67
2022/11/27 10:30:16;;;;;;;;;;;;;;;14.16;48.54;100797.44;4471466;32;34477;-67
2022/11/27 10:32:44;;;;;;;;;;;;;;;14.30;48.05;100806.31;4463981;32;34772;-67
2022/11/27 10:35:28;;;;;;;;;;;;;;;14.25;48.30;100798.56;4465617;32;33424;-67
2022/11/27 10:37:55;;;;;;;;;;;;;;;14.43;47.98;100799.06;4463724;32;34096;-67
2022/11/27 10:40:39;;;;;;;;;;;;;;;14.05;48.87;100797.34;4476140;32;33014;-67
2022/11/27 10:43:06;;;;;;;;;;;;;;;14.41;47.45;100793.81;4478744;32;33986;-68
2022/11/27 10:45:49;;;;;;;;;;;;;;;14.33;47.56;100792.63;4471596;32;32156;-67
2022/11/27 10:48:16;;;;;;;;;;;;;;;14.06;48.54;100790.13;4475840;32;35108;-67
2022/11/27 10:50:44;;;;;;;;;;;;;;;14.12;48.16;100795.06;4480444;32;34244;-68
2022/11/27 10:53:31;;;;;;;;;;;;;;;14.37;47.60;100794.13;4476357;32;34754;-68
2022/11/27 10:56:13;;;;;;;;;;;;;;;14.10;48.05;100787.09;4458575;32;33345;-68
2022/11/27 10:58:51;;;;;;;;;;;;;;;13.48;49.33;100781.69;4471221;31;35501;-66
2022/11/27 11:01:19;;;;;;;;;;;;;;;14.18;47.78;100782.00;4458868;32;35518;-68
2022/11/27 11:03:47;;;;;;;;;;;;;;;14.08;47.95;100769.34;4472493;31;32942;-69
2022/11/27 11:06:17;;;;;;;;;;;;;;;14.30;47.81;100764.09;4470240;31;34697;-68
2022/11/27 11:09:05;;;;;;;;;;;;;;;14.47;47.31;100765.53;4475451;32;34205;-66
2022/11/27 11:11:33;;;;;;;;;;;;;;;14.21;47.93;100760.25;4457292;32;34385;-67
2022/11/27 11:14:01;;;;;;;;;;;;;;;14.48;47.18;100755.59;4471471;32;33237;-68
2022/11/27 11:16:31;;;;;;;;;;;;;;;14.32;47.49;100756.78;4469399;32;34076;-67
2022/11/27 11:19:02;;;;;;;;;;;;;;;13.95;48.89;100753.22;4464301;32;33975;-67
2022/11/27 11:21:40;;;;;;;;;;;;;;;13.55;49.71;100753.41;4474684;31;35481;-67
2022/11/27 11:24:27;;;;;;;;;;;;;;;13.50;49.65;100747.50;4474618;32;35548;-67
2022/11/27 11:26:55;;;;;;;;;;;;;;;12.66;52.79;100756.84;4460342;32;34364;-67
2022/11/27 11:29:25;;;;;;;;;;;;;;;12.55;53.11;100752.22;4471497;32;34152;-68
2022/11/27 11:31:53;;;;;;;;;;;;;;;12.83;52.02;100744.97;4468889;32;33583;-68
2022/11/27 11:34:28;;;;;;;;;;;;;;;13.21;50.90;100742.31;4461084;32;34521;-66
2022/11/27 11:37:03;;;;;;;;;;;;;;;12.32;53.25;100739.44;4472293;32;32760;-66
2022/11/27 11:39:32;;;;;;;;;;;;;;;12.65;52.56;100733.66;4477423;32;32915;-66
2022/11/27 11:42:00;;;;;;;;;;;;;;;12.53;52.99;100737.16;4457452;32;35228;-67
2022/11/27 11:44:32;;;;;;;;;;;;;;;12.48;52.61;100741.97;4469757;32;34115;-70
2022/11/27 11:46:59;;;;;;;;;;;;;;;12.53;53.19;100734.47;4470350;32;32372;-67
2022/11/27 11:49:27;;;;;;;;;;;;;;;12.03;54.34;100725.25;4465530;32;35007;-68
2022/11/27 11:52:03;;;;;;;;;;;;;;;12.48;53.42;100720.47;4470911;32;33316;-67
2022/11/27 11:54:30;;;;;;;;;;;;;;;11.81;54.81;100721.28;4455148;32;34564;-71
2022/11/27 11:56:58;;;;;;;;;;;;;;;12.18;53.88;100724.25;4471170;31;33654;-68
2022/11/27 11:59:37;;;;;;;;;;;;;;;11.33;56.41;100723.41;4446142;32;33716;-69
2022/11/27 12:02:30;;;;;;;;;;;;;;;11.72;55.33;100724.53;4474044;31;33249;-68
2022/11/27 12:05:05;;;;;;;;;;;;;;;12.54;53.20;100715.56;4474326;32;35336;-68
2022/11/27 12:07:38;;;;;;;;;;;;;;;12.55;53.20;100706.56;4458259;32;33763;-67
2022/11/27 12:10:13;;;;;;;;;;;;;;;12.72;52.68;100712.59;4467620;32;34354;-67
2022/11/27 12:12:59;;;;;;;;;;;;;;;12.85;51.98;100713.47;4469345;32;33839;-67
2022/11/27 12:15:31;;;;;;;;;;;;;;;12.49;52.84;100724.91;4479080;32;33448;-68
2022/11/27 12:18:17;;;;;;;;;;;;;;;11.89;54.76;100720.78;4468719;32;34391;-68
2022/11/27 12:20:59;;;;;;;;;;;;;;;12.26;53.36;100708.53;4476701;32;35294;-70
2022/11/27 12:23:39;;;;;;;;;;;;;;;12.54;52.77;100712.88;4474038;32;32965;-68
2022/11/27 12:26:13;;;;;;;;;;;;;;;12.29;53.69;100707.44;4469663;32;34400;-69
2022/11/27 12:28:56;;;;;;;;;;;;;;;12.49;53.41;100706.97;4475930;32;33854;-67
2022/11/27 12:31:30;;;;;;;;;;;;;;;12.17;54.62;100706.44;4472163;32;35108;-67
2022/11/27 12:33:59;;;;;;;;;;;;;;;11.34;56.09;100709.06;4465069;32;32928;-68
2022/11/27 12:36:47;;;;;;;;;;;;;;;11.29;56.48;100712.97;4464453;32;34326;-68
2022/11/27 12:39:19;;;;;;;;;;;;;;;11.29;57.25;100702.25;4448669;32;34596;-69
2022/11/27 12:42:05;;;;;;;;;;;;;;;11.00;57.85;100707.59;4460467;32;32631;-66
2022/11/27 12:44:32;;;;;;;;;;;;;;;11.50;56.91;100703.59;4454430;32;32912;-67
2022/11/27 12:47:08;;;;;;;;;;;;;;;11.72;55.57;100694.16;4464578;32;32844;-69
2022/11/27 12:49:36;;;;;;;;;;;;;;;11.86;54.90;100708.44;4460286;32;33844;-68
2022/11/27 12:52:09;;;;;;;;;;;;;;;11.79;55.40;100696.34;4473206;32;33032;-67